createdAt,value
2023-05-04T10:39:53.951Z,23.16
2023-05-04T10:42:21.659Z,23.25
2023-05-04T10:44:58.016Z,23.36
2023-05-04T10:47:32.402Z,23.61
2023-05-04T10:50:04.824Z,23.75
2023-05-04T10:52:33.014Z,23.84
2023-05-04T10:55:01.482Z,23.86
2023-05-04T10:57:29.143Z,23.92
2023-05-04T10:59:57.598Z,24.10
2023-05-04T11:02:28.849Z,24.19
2023-05-04T11:05:10.038Z,24.40
2023-05-04T11:07:38.271Z,24.50
2023-05-04T11:10:20.248Z,24.46
2023-05-04T11:12:46.949Z,24.46
2023-05-04T11:15:14.038Z,24.34
2023-05-04T11:17:48.742Z,24.33
2023-05-04T11:20:26.269Z,24.26
2023-05-04T11:22:54.025Z,24.31
2023-05-04T11:25:28.328Z,24.23
2023-05-04T11:27:55.282Z,24.25
2023-05-04T11:30:22.258Z,24.28
2023-05-04T11:32:51.760Z,24.25
2023-05-04T11:35:22.763Z,24.22
2023-05-04T11:37:50.639Z,24.28
2023-05-04T11:40:19.852Z,24.28
2023-05-04T11:42:47.050Z,24.31
2023-05-04T11:45:23.008Z,24.08
2023-05-04T11:47:51.680Z,24.12
2023-05-04T11:50:20.517Z,24.08
2023-05-04T11:52:48.223Z,24.16
2023-05-04T11:55:29.219Z,24.28
2023-05-04T11:58:02.535Z,24.30
2023-05-04T12:00:46.149Z,24.24
2023-05-04T12:03:17.713Z,24.26
2023-05-04T12:05:48.210Z,24.43
2023-05-04T12:08:42.284Z,24.45
2023-05-04T12:11:25.665Z,24.43
2023-05-04T12:14:07.742Z,24.45
2023-05-04T12:16:34.854Z,24.53
2023-05-04T12:19:13.111Z,24.70
2023-05-04T12:22:09.863Z,24.57
2023-05-04T12:24:36.702Z,24.16
2023-05-04T12:27:04.985Z,24.22
2023-05-04T12:29:31.766Z,24.12
2023-05-04T12:31:58.623Z,23.93
2023-05-04T12:34:25.366Z,23.90
2023-05-04T12:36:52.312Z,23.72
2023-05-04T12:39:19.095Z,23.71
2023-05-04T12:41:45.783Z,23.91
2023-05-04T12:44:14.326Z,24.01
2023-05-04T12:46:41.084Z,24.08
2023-05-04T12:49:07.875Z,24.13
2023-05-04T12:51:34.685Z,24.16
2023-05-04T12:54:01.471Z,24.28
2023-05-04T12:56:28.385Z,24.22
2023-05-04T12:58:55.240Z,24.30
2023-05-04T13:01:22.281Z,24.27
2023-05-04T13:03:49.309Z,24.23
2023-05-04T13:06:16.324Z,24.35
2023-05-04T13:08:44.520Z,24.36
2023-05-04T13:11:11.254Z,24.41
2023-05-04T13:13:37.987Z,24.28
2023-05-04T13:16:05.925Z,24.30
2023-05-04T13:18:33.525Z,24.31
2023-05-04T13:21:00.721Z,24.37
2023-05-04T13:23:27.599Z,24.54
2023-05-04T13:25:54.828Z,24.52
2023-05-04T13:28:21.597Z,24.53
2023-05-04T13:30:48.768Z,24.38
2023-05-04T13:33:27.916Z,24.25
2023-05-04T13:35:56.949Z,24.14
2023-05-04T13:38:23.728Z,24.09
2023-05-04T13:40:50.689Z,24.27
2023-05-04T13:43:17.457Z,24.09
2023-05-04T13:45:44.336Z,24.18
2023-05-04T13:48:11.395Z,24.07
2023-05-04T13:50:38.289Z,24.16
2023-05-04T13:53:05.064Z,24.05
2023-05-04T13:55:32.863Z,24.26
2023-05-04T13:57:59.728Z,24.27
2023-05-04T14:00:27.069Z,24.26
2023-05-04T14:02:54.294Z,24.03
2023-05-04T14:05:21.436Z,23.90
2023-05-04T14:07:48.246Z,23.86
2023-05-04T14:10:15.057Z,24.07
2023-05-04T14:12:42.967Z,24.15
2023-05-04T14:15:10.155Z,24.26
2023-05-04T14:17:38.082Z,24.34
2023-05-04T14:20:06.284Z,24.36
2023-05-04T14:22:34.187Z,24.45
2023-05-04T14:25:05.520Z,24.32
2023-05-04T14:27:35.400Z,24.36
2023-05-04T14:30:03.855Z,24.26
2023-05-04T14:32:30.844Z,24.36
2023-05-04T14:35:11.271Z,24.52
2023-05-04T14:37:39.681Z,24.48
2023-05-04T14:40:11.159Z,24.41
2023-05-04T14:42:38.580Z,24.54
2023-05-04T14:45:07.166Z,24.61
2023-05-04T14:47:34.683Z,24.40
2023-05-04T14:50:02.280Z,24.47
2023-05-04T14:52:29.194Z,24.21
2023-05-04T14:54:56.251Z,24.29
2023-05-04T14:57:23.043Z,24.34
2023-05-04T14:59:49.751Z,24.33
2023-05-04T15:02:17.629Z,24.33
2023-05-04T15:04:45.841Z,24.36
2023-05-04T15:07:14.533Z,24.37
2023-05-04T15:09:41.329Z,24.42
2023-05-04T15:12:08.706Z,24.17
2023-05-04T15:14:39.015Z,24.08
2023-05-04T15:17:07.068Z,24.12
2023-05-04T15:19:37.632Z,23.87
2023-05-04T15:22:05.312Z,24.02
2023-05-04T15:24:32.251Z,24.11
2023-05-04T15:26:59.205Z,24.30
2023-05-04T15:29:26.096Z,24.45
2023-05-04T15:31:52.941Z,24.32
2023-05-04T15:34:19.662Z,24.18
2023-05-04T15:36:46.924Z,24.36
2023-05-04T15:39:13.737Z,24.47
2023-05-04T15:41:42.624Z,24.61
2023-05-04T15:44:09.491Z,24.86
2023-05-04T15:46:36.326Z,24.93
2023-05-04T15:49:03.187Z,25.01
2023-05-04T15:51:31.998Z,25.02
2023-05-04T15:53:59.760Z,25.08
2023-05-04T15:56:26.963Z,25.20
2023-05-04T15:58:53.789Z,25.19
2023-05-04T16:01:20.547Z,25.19
2023-05-04T16:03:47.539Z,25.17
2023-05-04T16:06:15.729Z,25.42
2023-05-04T16:08:42.634Z,25.46
2023-05-04T16:11:09.586Z,25.52
2023-05-04T16:13:36.704Z,25.64
2023-05-04T16:16:04.972Z,25.57
2023-05-04T16:18:32.026Z,25.48
2023-05-04T16:20:58.958Z,25.36
2023-05-04T16:23:26.838Z,25.43
2023-05-04T16:25:53.654Z,25.53
2023-05-04T16:28:20.594Z,25.60
2023-05-04T16:30:49.546Z,25.51
2023-05-04T16:33:16.286Z,25.65
2023-05-04T16:35:42.980Z,25.67
2023-05-04T16:38:12.323Z,25.76
2023-05-04T16:40:41.137Z,25.86
2023-05-04T16:43:08.225Z,25.97
2023-05-04T16:45:34.960Z,25.90
2023-05-04T16:48:01.811Z,25.83
2023-05-04T16:50:28.729Z,25.73
2023-05-04T16:52:55.488Z,25.43
2023-05-04T16:55:22.442Z,25.49
2023-05-04T16:57:49.538Z,25.54
2023-05-04T17:00:17.047Z,25.44
2023-05-04T17:02:43.941Z,25.27
2023-05-04T17:05:10.872Z,25.18
2023-05-04T17:07:39.744Z,25.25
2023-05-04T17:10:08.148Z,25.24
2023-05-04T17:12:35.959Z,25.26
2023-05-04T17:15:03.626Z,25.23
2023-05-04T17:17:30.403Z,25.26
2023-05-04T17:19:57.314Z,25.13
2023-05-04T17:22:25.361Z,25.13
2023-05-04T17:24:52.515Z,25.23
2023-05-04T17:27:19.308Z,25.26
2023-05-04T17:29:46.116Z,25.31
2023-05-04T17:32:12.964Z,25.33
2023-05-04T17:34:39.815Z,25.24
2023-05-04T17:37:06.512Z,25.21
2023-05-04T17:39:33.229Z,25.11
2023-05-04T17:42:00.081Z,24.96
2023-05-04T17:44:28.798Z,24.80
2023-05-04T17:46:55.967Z,24.74
2023-05-04T17:49:22.757Z,24.63
2023-05-04T17:51:49.537Z,24.57
2023-05-04T17:54:17.117Z,24.53
2023-05-04T17:56:44.046Z,24.45
2023-05-04T17:59:10.902Z,24.36
2023-05-04T18:01:37.769Z,24.35
2023-05-04T18:04:04.855Z,24.27
2023-05-04T18:06:32.704Z,24.09
2023-05-04T18:09:00.880Z,24.10
2023-05-04T18:11:27.863Z,24.08
2023-05-04T18:13:56.649Z,24.09
2023-05-04T18:16:24.307Z,24.10
2023-05-04T18:18:51.391Z,24.09
2023-05-04T18:21:18.272Z,24.05
2023-05-04T18:23:45.077Z,23.96
2023-05-04T18:26:18.366Z,23.78
2023-05-04T18:28:45.559Z,23.86
2023-05-04T18:31:12.374Z,23.78
2023-05-04T18:33:39.155Z,23.75
2023-05-04T18:36:06.415Z,23.62
2023-05-04T18:38:34.683Z,23.64
2023-05-04T18:41:01.529Z,23.64
2023-05-04T18:43:28.291Z,23.58
2023-05-04T18:45:55.057Z,23.50
2023-05-04T18:48:21.989Z,23.39
2023-05-04T18:50:57.330Z,23.38
2023-05-04T18:53:24.522Z,23.34
2023-05-04T18:56:05.594Z,23.31
2023-05-04T18:58:33.020Z,23.18
2023-05-04T19:01:00.067Z,23.15
2023-05-04T19:03:27.371Z,23.03
2023-05-04T19:05:55.085Z,23.03
2023-05-04T19:08:21.979Z,22.98
2023-05-04T19:10:49.410Z,22.94
2023-05-04T19:13:16.791Z,22.92
2023-05-04T19:15:43.817Z,22.90
2023-05-04T19:18:10.888Z,22.87
2023-05-04T19:20:38.253Z,22.86
2023-05-04T19:23:05.424Z,22.85
2023-05-04T19:25:35.187Z,22.81
2023-05-04T19:28:08.478Z,22.78
2023-05-04T19:30:38.982Z,22.75
2023-05-04T19:33:08.462Z,22.72
2023-05-04T19:35:35.905Z,22.69
2023-05-04T19:38:03.822Z,22.63
2023-05-04T19:40:31.139Z,22.63
2023-05-04T19:42:57.987Z,22.62
2023-05-04T19:45:24.925Z,22.56
2023-05-04T19:47:52.492Z,22.58
2023-05-04T19:50:20.077Z,22.66
2023-05-04T19:52:47.070Z,22.69
2023-05-04T19:55:13.902Z,22.71
2023-05-04T19:57:40.826Z,22.72
2023-05-04T20:00:09.906Z,22.72
2023-05-04T20:02:39.986Z,22.74
2023-05-04T20:05:07.154Z,22.76
2023-05-04T20:07:33.979Z,22.78
2023-05-04T20:10:00.872Z,22.71
2023-05-04T20:12:27.826Z,22.71
2023-05-04T20:14:54.587Z,22.68
2023-05-04T20:17:21.643Z,22.67
2023-05-04T20:19:48.658Z,22.65
2023-05-04T20:22:16.414Z,22.64
2023-05-04T20:24:43.443Z,22.64
2023-05-04T20:27:10.258Z,22.59
2023-05-04T20:29:37.033Z,22.51
2023-05-04T20:32:05.676Z,22.47
2023-05-04T20:34:32.952Z,22.41
2023-05-04T20:36:59.910Z,22.36
2023-05-04T20:39:26.693Z,22.32
2023-05-04T20:41:53.625Z,22.28
2023-05-04T20:44:20.424Z,22.21
2023-05-04T20:46:47.219Z,22.17
2023-05-04T20:49:14.209Z,22.12
2023-05-04T20:51:41.039Z,22.12
2023-05-04T20:54:07.922Z,22.09
2023-05-04T20:56:34.646Z,22.04
2023-05-04T20:59:01.394Z,22.01
2023-05-04T21:01:29.589Z,22.02
2023-05-04T21:03:56.718Z,22.01
2023-05-04T21:06:24.422Z,21.98
2023-05-04T21:08:51.342Z,21.96
2023-05-04T21:11:18.090Z,21.96
2023-05-04T21:13:44.921Z,21.94
2023-05-04T21:16:11.813Z,21.92
2023-05-04T21:18:38.663Z,21.89
2023-05-04T21:21:05.881Z,21.87
2023-05-04T21:23:32.741Z,21.86
2023-05-04T21:26:01.119Z,21.84
2023-05-04T21:28:28.351Z,21.81
2023-05-04T21:30:55.557Z,21.80
2023-05-04T21:33:22.418Z,21.76
2023-05-04T21:35:49.190Z,21.76
2023-05-04T21:38:16.041Z,21.74
2023-05-04T21:40:42.834Z,21.72
2023-05-04T21:43:09.598Z,21.71
2023-05-04T21:45:36.351Z,21.71
2023-05-04T21:48:03.821Z,21.70
2023-05-04T21:50:49.253Z,21.66
2023-05-04T21:53:15.973Z,21.64
2023-05-04T21:55:42.711Z,21.64
2023-05-04T21:58:09.657Z,21.64
2023-05-04T22:00:36.757Z,21.62
2023-05-04T22:03:03.635Z,21.63
2023-05-04T22:05:30.509Z,21.57
2023-05-04T22:07:57.329Z,21.54
2023-05-04T22:10:24.137Z,21.52
2023-05-04T22:12:51.305Z,21.50
2023-05-04T22:15:18.052Z,21.50
2023-05-04T22:17:44.843Z,21.42
2023-05-04T22:20:12.444Z,21.42
2023-05-04T22:22:39.117Z,21.43
2023-05-04T22:25:06.262Z,21.41
2023-05-04T22:27:33.028Z,21.42
2023-05-04T22:29:59.875Z,21.42
2023-05-04T22:32:26.643Z,21.41
2023-05-04T22:34:55.856Z,21.39
2023-05-04T22:37:22.586Z,21.37
2023-05-04T22:39:49.269Z,21.29
2023-05-04T22:42:16.075Z,21.20
2023-05-04T22:44:42.754Z,21.22
2023-05-04T22:47:09.670Z,21.24
2023-05-04T22:49:36.471Z,21.23
2023-05-04T22:52:06.148Z,21.23
2023-05-04T22:54:32.883Z,21.23
2023-05-04T22:56:59.585Z,21.22
2023-05-04T22:59:26.287Z,21.23
2023-05-04T23:01:53.007Z,21.22
2023-05-04T23:04:19.773Z,21.18
2023-05-04T23:06:46.632Z,21.19
2023-05-04T23:09:14.679Z,21.20
2023-05-04T23:11:41.825Z,21.20
2023-05-04T23:14:08.605Z,21.17
2023-05-04T23:16:35.364Z,21.17
2023-05-04T23:19:02.093Z,21.17
2023-05-04T23:21:28.784Z,21.15
2023-05-04T23:23:56.174Z,21.15
2023-05-04T23:26:23.730Z,21.13
2023-05-04T23:28:50.434Z,21.11
2023-05-04T23:31:17.224Z,21.12
2023-05-04T23:33:44.168Z,21.09
2023-05-04T23:36:10.989Z,21.09
2023-05-04T23:38:37.770Z,21.11
2023-05-04T23:41:04.746Z,21.08
2023-05-04T23:43:31.954Z,21.06
2023-05-04T23:46:03.577Z,21.06
2023-05-04T23:48:32.003Z,21.04
2023-05-04T23:51:04.571Z,21.03
2023-05-04T23:53:32.154Z,21.00
2023-05-04T23:56:04.540Z,20.98
2023-05-04T23:58:33.334Z,20.97
